Time;durP1;ratioP1;P1;durP2;ratioP2;P2;SDS_P1;SDS_P2;PMS_P1;PMS_P2;Temp;Humidity;BMP_temperature;BMP_pressure;BME280_temperature;BME280_humidity;BME280_pressure;Samples;Min_cycle;Max_cycle;Signal;HPM_P1;HPM_P2
2024/04/06 00:01:56;;;;;;;2.03;1.83;;;15.70;99.90;;;;;;5059640;28;20468;-72
2024/04/06 00:04:22;;;;;;;2.63;1.70;;;15.70;99.90;;;;;;5062393;28;20712;-72
2024/04/06 00:06:47;;;;;;;2.77;2.03;;;15.70;99.90;;;;;;5044768;28;20215;-70
2024/04/06 00:09:13;;;;;;;1.83;1.70;;;15.70;99.90;;;;;;5058032;28;20219;-69
2024/04/06 00:11:39;;;;;;;2.50;1.67;;;15.70;99.90;;;;;;5062405;28;20301;-71
2024/04/06 00:14:04;;;;;;;1.87;1.60;;;15.70;99.90;;;;;;5064447;28;20214;-73
2024/04/06 00:16:30;;;;;;;4.03;1.77;;;15.70;99.90;;;;;;5063646;28;20326;-71
2024/04/06 00:18:56;;;;;;;3.00;1.97;;;15.70;99.90;;;;;;5063620;28;20219;-71
2024/04/06 00:21:21;;;;;;;4.03;1.60;;;15.70;99.90;;;;;;5045465;28;20211;-71
2024/04/06 00:23:47;;;;;;;2.17;1.97;;;15.70;99.90;;;;;;5063186;28;20298;-71
2024/04/06 00:26:12;;;;;;;2.93;2.10;;;15.60;99.90;;;;;;5066344;28;20782;-72
2024/04/06 00:28:38;;;;;;;2.47;2.27;;;15.60;99.90;;;;;;5050621;28;20306;-71
2024/04/06 00:31:04;;;;;;;1.70;1.47;;;15.50;99.90;;;;;;5065198;28;20211;-71
2024/04/06 00:33:29;;;;;;;1.70;1.60;;;15.50;99.90;;;;;;5064425;28;20276;-72
2024/04/06 00:35:55;;;;;;;3.07;1.53;;;15.50;99.90;;;;;;5066478;28;20749;-72
2024/04/06 00:38:21;;;;;;;1.50;1.37;;;15.50;99.90;;;;;;5065754;28;20795;-71
2024/04/06 00:40:46;;;;;;;2.70;1.77;;;15.50;99.90;;;;;;5065982;28;20228;-70
2024/04/06 00:43:12;;;;;;;1.53;1.43;;;15.60;99.90;;;;;;5053208;28;20595;-71
2024/04/06 00:45:38;;;;;;;1.83;1.67;;;15.60;99.90;;;;;;5061598;28;20257;-72
2024/04/06 00:48:04;;;;;;;2.20;2.00;;;15.60;99.90;;;;;;5059254;28;20243;-73
2024/04/06 00:50:30;;;;;;;2.87;1.43;;;15.60;99.90;;;;;;5055379;28;20246;-72
2024/04/06 00:52:56;;;;;;;2.53;1.77;;;15.60;99.90;;;;;;5059856;28;20457;-71
2024/04/06 00:55:22;;;;;;;2.40;1.90;;;15.50;99.90;;;;;;5057614;28;20456;-70
2024/04/06 00:57:48;;;;;;;5.60;3.40;;;15.50;99.90;;;;;;5060715;28;20631;-71
2024/04/06 01:00:14;;;;;;;2.20;2.00;;;15.60;99.90;;;;;;5055299;28;20470;-71
2024/04/06 01:02:40;;;;;;;3.73;1.90;;;15.60;99.90;;;;;;5059326;28;21424;-71
2024/04/06 01:05:06;;;;;;;1.60;1.50;;;15.60;99.90;;;;;;5059384;28;20223;-72
2024/04/06 01:07:32;;;;;;;2.40;1.50;;;15.50;99.90;;;;;;5039875;28;20526;-72
2024/04/06 01:09:57;;;;;;;1.60;1.50;;;15.50;99.90;;;;;;5058701;28;20578;-71
2024/04/06 01:12:23;;;;;;;2.77;2.30;;;15.40;99.90;;;;;;5057083;28;20211;-72
2024/04/06 01:14:49;;;;;;;4.00;3.00;;;15.50;99.90;;;;;;5042538;28;20223;-71
2024/04/06 01:17:15;;;;;;;1.90;1.80;;;15.50;99.90;;;;;;5056202;28;20646;-70
2024/04/06 01:19:42;;;;;;;3.27;1.97;;;15.50;99.90;;;;;;5060743;28;20257;-71
2024/04/06 01:22:07;;;;;;;2.00;1.80;;;15.50;99.90;;;;;;5060557;28;20495;-71
2024/04/06 01:24:33;;;;;;;2.33;2.13;;;15.40;99.90;;;;;;5044290;28;20481;-71
2024/04/06 01:26:59;;;;;;;1.90;1.70;;;15.40;99.90;;;;;;5055215;28;20609;-71
2024/04/06 01:29:27;;;;;;;1.83;1.73;;;15.40;99.90;;;;;;5056394;28;20219;-71
2024/04/06 01:31:53;;;;;;;1.97;1.70;;;15.40;99.90;;;;;;5055942;28;21060;-71
2024/04/06 01:34:18;;;;;;;2.50;2.07;;;15.40;99.90;;;;;;5056793;28;20457;-71
2024/04/06 01:36:44;;;;;;;1.70;1.60;;;15.40;99.90;;;;;;5041733;28;20465;-71
2024/04/06 01:39:13;;;;;;;4.07;1.60;;;15.40;99.90;;;;;;5053947;28;20222;-71
2024/04/06 01:41:44;;;;;;;2.60;1.77;;;15.40;99.90;;;;;;5057225;28;20207;-70
2024/04/06 01:44:09;;;;;;;1.83;1.73;;;15.40;99.90;;;;;;5048402;28;20567;-70
2024/04/06 01:46:35;;;;;;;2.00;1.80;;;15.40;99.90;;;;;;5061849;28;20599;-71
2024/04/06 01:49:01;;;;;;;4.53;2.50;;;15.40;99.90;;;;;;5043512;28;20302;-71
2024/04/06 01:51:27;;;;;;;5.33;2.53;;;15.40;99.90;;;;;;5053242;28;20276;-72
2024/04/06 01:53:52;;;;;;;2.37;2.17;;;15.40;99.90;;;;;;5057665;28;20219;-70
2024/04/06 01:56:18;;;;;;;2.80;1.90;;;15.40;99.90;;;;;;5056248;28;20227;-71
2024/04/06 01:58:45;;;;;;;2.00;1.80;;;15.30;99.90;;;;;;5061288;28;20223;-71
2024/04/06 02:01:12;;;;;;;2.20;1.67;;;15.30;99.90;;;;;;5036377;28;20468;-71
2024/04/06 02:03:38;;;;;;;2.00;1.80;;;15.30;99.90;;;;;;5057455;28;20473;-72
2024/04/06 02:06:04;;;;;;;3.67;1.83;;;15.30;99.90;;;;;;5057005;28;20999;-72
2024/04/06 02:08:30;;;;;;;2.00;1.70;;;15.20;99.90;;;;;;5055883;28;20514;-71
2024/04/06 02:10:56;;;;;;;2.50;1.90;;;15.20;99.90;;;;;;5054822;28;20536;-72
2024/04/06 02:13:21;;;;;;;1.80;1.60;;;15.20;99.90;;;;;;5037461;28;20218;-71
2024/04/06 02:15:50;;;;;;;1.60;1.50;;;15.00;99.90;;;;;;5055599;28;20222;-71
2024/04/06 02:18:16;;;;;;;1.97;1.87;;;15.00;99.90;;;;;;5054932;28;20214;-72
2024/04/06 02:20:41;;;;;;;1.70;1.60;;;15.00;99.90;;;;;;5060783;28;20454;-71
2024/04/06 02:23:07;;;;;;;2.77;1.93;;;15.00;99.90;;;;;;5058486;28;20215;-71
2024/04/06 02:25:33;;;;;;;3.70;1.80;;;15.00;99.90;;;;;;5055251;28;20231;-72
2024/04/06 02:27:59;;;;;;;1.60;1.50;;;14.90;99.90;;;;;;5058814;28;20222;-71
2024/04/06 02:30:25;;;;;;;2.30;2.10;;;14.90;99.90;;;;;;5051162;28;20224;-71
2024/04/06 02:32:51;;;;;;;1.93;1.73;;;14.90;99.90;;;;;;5060243;28;20548;-72
2024/04/06 02:35:16;;;;;;;2.43;2.23;;;14.90;99.90;;;;;;5036457;28;20217;-72
2024/04/06 02:37:43;;;;;;;2.20;2.00;;;14.90;99.90;;;;;;5038746;28;20227;-71
2024/04/06 02:40:10;;;;;;;1.93;1.83;;;14.80;99.90;;;;;;5052839;28;20712;-72
2024/04/06 02:42:36;;;;;;;2.10;1.90;;;14.80;99.90;;;;;;5058184;28;20465;-71
2024/04/06 02:45:03;;;;;;;5.30;2.30;;;14.80;99.90;;;;;;5056274;28;20501;-72
2024/04/06 02:47:29;;;;;;;1.90;1.80;;;14.80;99.90;;;;;;5053905;28;20535;-70
2024/04/06 02:49:55;;;;;;;1.80;1.70;;;14.70;99.90;;;;;;5059288;28;20462;-70
2024/04/06 02:52:21;;;;;;;3.57;1.60;;;14.70;99.90;;;;;;5036893;28;20450;-72
2024/04/06 02:54:48;;;;;;;2.23;1.80;;;14.80;99.90;;;;;;5056672;28;20528;-70
2024/04/06 02:57:14;;;;;;;2.40;2.13;;;14.80;99.90;;;;;;5052503;28;20594;-72
2024/04/06 02:59:39;;;;;;;2.20;1.80;;;14.70;99.90;;;;;;5059850;28;20461;-71
2024/04/06 03:02:05;;;;;;;2.33;1.80;;;14.80;99.90;;;;;;5056631;28;20465;-71
2024/04/06 03:04:31;;;;;;;2.77;1.80;;;14.80;99.90;;;;;;5051432;28;20231;-71
2024/04/06 03:06:57;;;;;;;1.90;1.73;;;14.80;99.90;;;;;;5040115;28;20466;-71
2024/04/06 03:09:23;;;;;;;2.30;1.83;;;14.80;99.90;;;;;;5054141;28;20646;-71
2024/04/06 03:11:48;;;;;;;2.20;2.00;;;14.70;99.90;;;;;;5057303;28;20731;-71
2024/04/06 03:14:14;;;;;;;1.70;1.60;;;14.70;99.90;;;;;;5051932;28;20223;-71
2024/04/06 03:16:40;;;;;;;1.73;1.63;;;14.70;99.90;;;;;;5042336;28;20322;-71
2024/04/06 03:19:05;;;;;;;2.30;2.10;;;14.70;99.90;;;;;;5055256;28;20667;-72
2024/04/06 03:21:31;;;;;;;2.50;1.73;;;14.60;99.90;;;;;;5034924;28;20215;-72
2024/04/06 03:23:56;;;;;;;2.13;1.93;;;14.60;99.90;;;;;;5059930;28;20230;-69
2024/04/06 03:26:22;;;;;;;3.20;1.80;;;14.50;99.90;;;;;;5051420;28;20250;-70
2024/04/06 03:28:48;;;;;;;3.43;2.50;;;14.50;99.90;;;;;;5055871;28;20652;-70
2024/04/06 03:31:14;;;;;;;1.60;1.50;;;14.50;99.90;;;;;;5052797;28;20208;-71
2024/04/06 03:33:40;;;;;;;1.80;1.70;;;14.50;99.90;;;;;;5059449;28;20461;-71
2024/04/06 03:36:05;;;;;;;1.83;1.57;;;14.50;99.90;;;;;;5042836;28;20241;-70
2024/04/06 03:38:31;;;;;;;2.17;1.73;;;14.50;99.90;;;;;;5055347;28;20242;-72
2024/04/06 03:40:57;;;;;;;1.83;1.50;;;14.40;99.90;;;;;;5057928;28;20211;-71
2024/04/06 03:43:23;;;;;;;2.20;2.00;;;14.30;99.90;;;;;;5055027;28;20207;-71
2024/04/06 03:45:49;;;;;;;1.90;1.80;;;14.20;99.90;;;;;;5038825;28;20314;-72
2024/04/06 03:48:15;;;;;;;2.03;1.83;;;14.10;99.90;;;;;;5052444;28;20587;-71
2024/04/06 03:50:40;;;;;;;3.93;2.10;;;14.10;99.90;;;;;;5056510;28;20450;-70
2024/04/06 03:53:06;;;;;;;1.80;1.70;;;14.10;99.90;;;;;;5057258;28;20579;-71
2024/04/06 03:55:32;;;;;;;1.70;1.60;;;14.00;99.90;;;;;;5053180;28;20218;-72
2024/04/06 03:57:57;;;;;;;5.20;2.13;;;14.00;99.90;;;;;;5055860;28;20697;-71
2024/04/06 04:00:23;;;;;;;2.83;2.60;;;14.00;99.90;;;;;;5053404;28;20257;-71
2024/04/06 04:02:49;;;;;;;2.10;1.90;;;13.90;99.90;;;;;;5056797;28;20218;-72
2024/04/06 04:05:15;;;;;;;1.90;1.77;;;13.90;99.90;;;;;;5054609;28;20215;-71
2024/04/06 04:07:40;;;;;;;2.53;2.33;;;13.90;99.90;;;;;;5059498;28;20230;-72
2024/04/06 04:10:07;;;;;;;3.83;1.50;;;13.80;99.90;;;;;;5055785;28;20465;-72
2024/04/06 04:12:33;;;;;;;2.23;1.63;;;13.90;99.90;;;;;;5036667;28;20309;-72
2024/04/06 04:15:05;;;;;;;1.67;1.57;;;14.00;99.90;;;;;;5057537;28;20479;-71
2024/04/06 04:17:33;;;;;;;2.20;1.70;;;14.10;99.90;;;;;;5040263;28;20901;-72
2024/04/06 04:20:00;;;;;;;1.70;1.60;;;14.10;99.90;;;;;;5032109;28;20495;-72
2024/04/06 04:22:26;;;;;;;1.50;1.40;;;14.10;99.90;;;;;;5054769;28;20465;-72
2024/04/06 04:24:51;;;;;;;7.43;1.47;;;14.10;99.90;;;;;;5059503;28;20967;-73
2024/04/06 04:27:18;;;;;;;3.87;1.80;;;14.10;99.90;;;;;;5053528;28;20727;-72
2024/04/06 04:29:44;;;;;;;2.37;1.90;;;14.10;99.90;;;;;;5059179;28;20237;-72
2024/04/06 04:32:10;;;;;;;1.50;1.40;;;14.10;99.90;;;;;;5051417;28;20513;-72
2024/04/06 04:34:36;;;;;;;2.10;1.90;;;14.10;99.90;;;;;;5057174;28;20473;-72
2024/04/06 04:37:03;;;;;;;2.10;2.00;;;14.00;99.90;;;;;;5043212;28;20453;-72
2024/04/06 04:39:30;;;;;;;2.60;1.70;;;13.90;99.90;;;;;;5055201;28;20224;-72
2024/04/06 04:41:56;;;;;;;2.00;1.70;;;13.90;99.90;;;;;;5060305;28;20453;-72
2024/04/06 04:44:23;;;;;;;2.50;1.70;;;13.90;99.90;;;;;;5055674;28;20886;-71
2024/04/06 04:46:48;;;;;;;2.70;2.00;;;13.90;99.90;;;;;;5061556;28;20462;-73
2024/04/06 04:49:14;;;;;;;2.60;1.90;;;13.70;99.90;;;;;;5057526;28;20468;-72
2024/04/06 04:51:40;;;;;;;2.07;1.90;;;13.70;99.90;;;;;;5057067;28;20223;-72
2024/04/06 04:54:05;;;;;;;1.90;1.70;;;13.70;99.90;;;;;;5058211;28;20277;-71
2024/04/06 04:56:31;;;;;;;2.40;2.10;;;13.70;99.90;;;;;;5052959;28;20777;-72
2024/04/06 04:58:57;;;;;;;1.83;1.70;;;13.60;99.90;;;;;;5057546;28;20219;-72
2024/04/06 05:01:22;;;;;;;3.20;2.10;;;13.50;99.90;;;;;;5052476;28;20219;-71
2024/04/06 05:03:48;;;;;;;3.17;2.20;;;13.50;99.90;;;;;;5059372;28;20227;-72
2024/04/06 05:06:14;;;;;;;4.10;2.47;;;13.50;99.90;;;;;;5038115;28;20246;-72
2024/04/06 05:08:39;;;;;;;3.83;2.50;;;13.50;99.90;;;;;;5057044;28;20223;-71
2024/04/06 05:11:05;;;;;;;2.53;2.33;;;13.50;99.90;;;;;;5055499;28;20216;-70
2024/04/06 05:13:31;;;;;;;2.13;2.03;;;13.40;99.90;;;;;;5054907;28;20211;-72
2024/04/06 05:15:58;;;;;;;2.47;2.27;;;13.40;99.90;;;;;;5060334;28;20456;-72
2024/04/06 05:18:24;;;;;;;2.70;2.50;;;13.50;99.90;;;;;;5058005;28;20231;-72
2024/04/06 05:20:58;;;;;;;3.90;2.20;;;13.40;99.90;;;;;;5046043;28;20504;-72
2024/04/06 05:23:26;;;;;;;2.30;2.10;;;13.40;99.90;;;;;;5061950;28;20664;-71
2024/04/06 05:25:51;;;;;;;3.23;2.20;;;13.40;99.90;;;;;;5042078;28;20466;-72
2024/04/06 05:28:22;;;;;;;2.13;2.00;;;13.40;99.90;;;;;;5040252;28;20455;-72
2024/04/06 05:30:48;;;;;;;2.40;1.80;;;13.40;99.90;;;;;;5059208;28;20852;-72
2024/04/06 05:33:16;;;;;;;2.10;1.53;;;13.40;99.90;;;;;;5045508;28;20450;-72
2024/04/06 05:35:43;;;;;;;2.10;1.50;;;13.40;99.90;;;;;;5060302;28;20522;-71
2024/04/06 05:38:09;;;;;;;1.63;1.53;;;13.40;99.90;;;;;;5058790;28;20507;-72
2024/04/06 05:40:42;;;;;;;2.20;1.80;;;13.40;99.90;;;;;;5058448;28;20450;-72
2024/04/06 05:43:08;;;;;;;2.50;2.00;;;13.40;99.90;;;;;;5062320;28;20218;-72
2024/04/06 05:45:36;;;;;;;3.50;1.93;;;13.30;99.90;;;;;;5057499;28;21208;-72
2024/04/06 05:48:06;;;;;;;2.23;2.03;;;13.40;99.90;;;;;;5058561;28;20624;-71
2024/04/06 05:50:33;;;;;;;3.03;1.63;;;13.40;99.90;;;;;;5056849;28;20496;-71
2024/04/06 05:52:59;;;;;;;1.93;1.83;;;13.40;99.90;;;;;;5058963;28;20461;-72
2024/04/06 05:55:25;;;;;;;3.43;1.83;;;13.40;99.90;;;;;;5055557;28;20568;-71
2024/04/06 05:57:53;;;;;;;4.80;2.50;;;13.40;99.90;;;;;;5058215;28;20478;-70
2024/04/06 06:00:19;;;;;;;3.23;2.37;;;13.40;99.90;;;;;;5055971;28;20226;-72
2024/04/06 06:02:45;;;;;;;3.77;2.53;;;13.40;99.90;;;;;;5058780;28;20469;-72
2024/04/06 06:05:11;;;;;;;6.00;2.33;;;13.40;99.90;;;;;;5056445;28;20568;-72
2024/04/06 06:07:37;;;;;;;2.97;2.70;;;13.40;99.90;;;;;;5057863;28;20531;-72
2024/04/06 06:10:03;;;;;;;2.57;2.17;;;13.40;99.90;;;;;;5056840;28;20590;-71
2024/04/06 06:12:29;;;;;;;2.17;1.97;;;13.40;99.90;;;;;;5058060;28;20219;-72
2024/04/06 06:14:55;;;;;;;2.70;2.13;;;13.40;99.90;;;;;;5063789;28;20488;-72
2024/04/06 06:17:20;;;;;;;2.80;2.60;;;13.40;99.90;;;;;;5056837;28;20244;-71
2024/04/06 06:19:46;;;;;;;3.40;3.00;;;13.50;99.90;;;;;;5044099;28;20728;-72
2024/04/06 06:22:12;;;;;;;2.80;2.07;;;13.50;99.90;;;;;;5054376;28;20298;-72
2024/04/06 06:24:38;;;;;;;3.13;2.80;;;13.50;99.90;;;;;;5057664;28;20227;-72
2024/04/06 06:27:05;;;;;;;3.40;2.47;;;13.50;99.90;;;;;;5055069;28;20219;-72
2024/04/06 06:29:32;;;;;;;2.67;2.43;;;13.60;99.90;;;;;;5058145;28;20457;-73
2024/04/06 06:31:58;;;;;;;2.80;2.47;;;13.60;99.90;;;;;;5059093;28;20851;-72
2024/04/06 06:34:24;;;;;;;4.13;2.53;;;13.60;99.90;;;;;;5055575;28;20461;-71
2024/04/06 06:36:49;;;;;;;3.23;2.87;;;13.60;99.90;;;;;;5061704;28;20211;-71
2024/04/06 06:39:15;;;;;;;2.80;2.13;;;13.60;99.90;;;;;;5054703;28;20223;-72
2024/04/06 06:41:42;;;;;;;2.60;2.17;;;13.70;99.90;;;;;;5057047;28;20224;-70
2024/04/06 06:44:08;;;;;;;3.60;2.70;;;13.70;99.90;;;;;;5057882;28;20241;-72
2024/04/06 06:46:34;;;;;;;3.13;2.50;;;13.70;99.90;;;;;;5057054;28;20979;-72
2024/04/06 06:49:00;;;;;;;2.40;2.20;;;13.70;99.90;;;;;;5060372;28;20489;-71
2024/04/06 06:51:26;;;;;;;2.60;2.37;;;13.70;99.90;;;;;;5056852;28;20481;-72
2024/04/06 06:53:52;;;;;;;2.73;2.50;;;13.80;99.90;;;;;;5044492;28;20281;-71
2024/04/06 06:56:20;;;;;;;3.20;2.70;;;13.80;99.90;;;;;;5061975;28;20306;-71
2024/04/06 06:58:46;;;;;;;2.83;2.53;;;13.90;99.90;;;;;;5057966;28;20544;-72
2024/04/06 07:01:12;;;;;;;2.20;2.00;;;13.90;99.90;;;;;;5051619;28;20462;-71
2024/04/06 07:03:37;;;;;;;2.80;2.30;;;14.00;99.90;;;;;;5061107;28;20454;-71
2024/04/06 07:06:07;;;;;;;4.50;2.03;;;14.00;99.90;;;;;;5060842;28;20211;-71
2024/04/06 07:08:32;;;;;;;2.07;1.83;;;14.00;99.90;;;;;;5030692;28;20219;-71
2024/04/06 07:11:05;;;;;;;2.50;1.60;;;14.00;99.90;;;;;;5059392;28;20458;-72
2024/04/06 07:13:31;;;;;;;5.33;1.93;;;14.10;99.90;;;;;;5054646;28;20660;-71
2024/04/06 07:16:07;;;;;;;2.20;2.00;;;14.10;99.90;;;;;;5058812;28;20569;-72
2024/04/06 07:18:37;;;;;;;1.53;1.30;;;14.30;99.90;;;;;;5043968;28;20608;-71
2024/04/06 07:21:03;;;;;;;1.60;1.50;;;14.30;99.90;;;;;;5060784;28;20457;-71
2024/04/06 07:23:29;;;;;;;1.57;1.30;;;14.40;99.90;;;;;;5055500;28;20540;-72
2024/04/06 07:25:55;;;;;;;1.70;1.60;;;14.40;99.90;;;;;;5056735;28;20576;-71
2024/04/06 07:28:21;;;;;;;2.53;1.80;;;14.50;99.90;;;;;;5039763;28;20245;-71
2024/04/06 07:30:47;;;;;;;0.97;0.97;;;14.60;99.90;;;;;;5062108;28;20292;-72
2024/04/06 07:33:13;;;;;;;3.23;1.37;;;14.70;99.90;;;;;;5056486;28;20220;-72
2024/04/06 07:35:39;;;;;;;2.20;2.00;;;14.70;99.90;;;;;;5055183;28;20226;-72
2024/04/06 07:38:05;;;;;;;1.90;1.73;;;14.80;99.90;;;;;;5059436;28;20465;-73
2024/04/06 07:40:31;;;;;;;2.20;1.73;;;14.90;99.90;;;;;;5056878;28;20215;-72
2024/04/06 07:42:58;;;;;;;2.13;1.30;;;15.00;99.90;;;;;;5057175;28;20484;-70
2024/04/06 07:45:23;;;;;;;1.87;1.77;;;15.10;99.90;;;;;;5053725;28;20469;-72
2024/04/06 07:47:49;;;;;;;2.00;1.73;;;15.20;99.90;;;;;;5057712;28;20532;-69
2024/04/06 07:50:15;;;;;;;1.30;1.20;;;15.30;99.90;;;;;;5054047;28;20215;-72
2024/04/06 07:52:41;;;;;;;1.63;1.40;;;15.30;99.90;;;;;;5055467;28;20681;-72
2024/04/06 07:55:07;;;;;;;2.10;1.50;;;15.50;99.90;;;;;;5055719;28;20544;-72
2024/04/06 07:57:33;;;;;;;2.13;1.30;;;15.50;99.90;;;;;;5052141;28;20225;-72
2024/04/06 08:00:01;;;;;;;1.10;1.00;;;15.60;99.90;;;;;;5057243;28;20223;-73
2024/04/06 08:02:27;;;;;;;1.33;1.20;;;15.70;99.90;;;;;;5050801;28;20700;-72
2024/04/06 08:04:55;;;;;;;2.57;1.37;;;15.80;99.90;;;;;;5058305;28;20565;-73
2024/04/06 08:07:25;;;;;;;2.70;1.50;;;15.90;99.90;;;;;;5038058;28;20495;-72
2024/04/06 08:09:58;;;;;;;1.40;1.30;;;16.10;99.90;;;;;;5057175;28;20457;-72
2024/04/06 08:12:25;;;;;;;1.20;1.10;;;16.30;99.90;;;;;;5033975;28;20462;-71
2024/04/06 08:14:51;;;;;;;1.30;1.20;;;16.30;99.90;;;;;;5056094;28;20468;-72
2024/04/06 08:17:17;;;;;;;3.47;1.43;;;16.50;99.90;;;;;;5055281;28;20487;-72
2024/04/06 08:19:42;;;;;;;1.97;1.50;;;16.60;99.90;;;;;;5059493;28;20962;-71
2024/04/06 08:22:08;;;;;;;1.50;1.40;;;16.70;99.90;;;;;;5057347;28;20296;-72
2024/04/06 08:24:34;;;;;;;3.03;1.20;;;16.80;99.90;;;;;;5033077;28;20219;-72
2024/04/06 08:27:00;;;;;;;4.43;1.70;;;16.90;99.90;;;;;;5059737;28;20219;-71
2024/04/06 08:29:26;;;;;;;1.53;1.40;;;17.00;99.90;;;;;;5054492;28;20453;-72
2024/04/06 08:31:51;;;;;;;1.60;1.50;;;17.10;99.90;;;;;;5058236;28;20229;-73
2024/04/06 08:34:17;;;;;;;1.57;1.23;;;17.30;99.90;;;;;;5056633;28;20301;-73
2024/04/06 08:36:43;;;;;;;1.00;1.00;;;17.40;99.90;;;;;;5061635;28;20306;-71
2024/04/06 08:39:08;;;;;;;1.27;1.10;;;17.50;99.90;;;;;;5057437;28;20214;-70
2024/04/06 08:41:34;;;;;;;1.40;1.20;;;17.50;99.90;;;;;;5053292;28;20612;-73
2024/04/06 08:44:01;;;;;;;1.37;1.27;;;17.70;99.90;;;;;;5061249;28;20247;-72
2024/04/06 08:46:28;;;;;;;1.20;1.07;;;17.80;99.90;;;;;;5037285;28;20453;-73
2024/04/06 08:48:53;;;;;;;1.30;1.20;;;17.90;99.90;;;;;;5062183;28;20457;-72
2024/04/06 08:51:27;;;;;;;1.10;1.10;;;18.00;99.90;;;;;;5058933;28;20457;-72
2024/04/06 08:53:53;;;;;;;1.40;1.20;;;18.10;99.90;;;;;;5062946;28;20224;-73
2024/04/06 08:56:19;;;;;;;1.43;1.27;;;18.20;99.90;;;;;;5037536;28;20535;-72
2024/04/06 08:58:46;;;;;;;2.23;1.20;;;18.30;99.90;;;;;;5059297;28;20794;-72
2024/04/06 09:01:12;;;;;;;1.73;1.63;;;18.50;99.90;;;;;;5056041;28;20262;-73
2024/04/06 09:03:38;;;;;;;1.80;1.23;;;18.60;99.90;;;;;;5058057;28;20457;-72
2024/04/06 09:06:03;;;;;;;2.37;1.27;;;18.80;99.90;;;;;;5062635;28;20782;-73
2024/04/06 09:08:29;;;;;;;1.40;1.30;;;18.90;99.90;;;;;;5057498;28;20223;-73
2024/04/06 09:10:59;;;;;;;1.83;1.50;;;18.90;99.90;;;;;;5063939;28;20231;-71
2024/04/06 09:13:25;;;;;;;1.13;1.10;;;19.00;99.90;;;;;;5041224;28;20219;-72
2024/04/06 09:15:51;;;;;;;2.33;1.20;;;19.20;99.90;;;;;;5063191;28;20459;-72
2024/04/06 09:18:17;;;;;;;1.63;1.47;;;19.30;99.90;;;;;;5057558;28;20215;-72
2024/04/06 09:20:52;;;;;;;1.30;1.00;;;19.50;99.90;;;;;;5061722;28;20222;-72
2024/04/06 09:23:19;;;;;;;1.77;1.20;;;19.80;99.90;;;;;;5033142;28;20453;-73
2024/04/06 09:25:44;;;;;;;1.47;1.27;;;20.00;99.90;;;;;;5060849;28;20845;-73
2024/04/06 09:28:11;;;;;;;1.17;1.10;;;20.00;99.90;;;;;;5059721;28;20465;-72
2024/04/06 09:30:44;;;;;;;1.30;1.20;;;20.00;99.90;;;;;;5062280;28;20310;-71
2024/04/06 09:33:15;;;;;;;1.50;1.17;;;20.10;99.90;;;;;;5057494;28;20450;-72
2024/04/06 09:35:41;;;;;;;1.47;1.37;;;20.20;99.90;;;;;;5061083;28;21079;-71
2024/04/06 09:38:15;;;;;;;5.60;1.27;;;20.30;99.90;;;;;;5053696;28;20520;-73
2024/04/06 09:40:43;;;;;;;1.40;1.30;;;20.30;99.90;;;;;;5074988;28;20307;-72
2024/04/06 09:43:10;;;;;;;1.73;1.30;;;20.60;99.90;;;;;;5069590;28;20523;-73
2024/04/06 09:45:39;;;;;;;1.63;1.33;;;20.80;99.90;;;;;;5061408;28;20526;-73
2024/04/06 09:48:09;;;;;;;1.50;1.40;;;20.70;99.90;;;;;;5051794;28;20552;-73
2024/04/06 09:50:38;;;;;;;1.30;1.20;;;20.70;99.90;;;;;;5064836;28;20453;-73
2024/04/06 09:53:04;;;;;;;1.57;1.47;;;20.90;99.90;;;;;;5065167;28;20821;-73
2024/04/06 09:55:31;;;;;;;1.53;1.43;;;21.00;99.90;;;;;;5067738;28;20453;-73
2024/04/06 09:57:57;;;;;;;1.17;1.07;;;21.00;99.90;;;;;;5068986;28;20465;-73
2024/04/06 10:00:22;;;;;;;1.30;1.20;;;21.00;99.90;;;;;;5066030;28;20539;-72
2024/04/06 10:02:51;;;;;;;1.40;1.30;;;21.10;99.90;;;;;;5066901;28;20500;-72
2024/04/06 10:05:16;;;;;;;1.13;0.97;;;21.20;99.90;;;;;;5066864;28;20223;-73
2024/04/06 10:07:48;;;;;;;4.50;1.53;;;21.30;99.90;;;;;;5060803;28;20464;-73
2024/04/06 10:10:14;;;;;;;3.53;1.40;;;21.40;99.90;;;;;;5056693;28;21027;-73
2024/04/06 10:12:44;;;;;;;1.30;1.10;;;21.70;99.90;;;;;;5058622;28;20501;-73
2024/04/06 10:15:11;;;;;;;1.40;1.30;;;21.90;99.90;;;;;;5061542;28;20587;-73
2024/04/06 10:17:53;;;;;;;1.27;1.17;;;21.70;99.90;;;;;;5041814;28;20477;-72
2024/04/06 10:20:24;;;;;;;1.50;1.20;;;21.70;99.90;;;;;;5037736;28;20453;-72
2024/04/06 10:22:59;;;;;;;1.30;1.20;;;21.70;99.90;;;;;;5060105;28;20461;-73
2024/04/06 10:25:34;;;;;;;1.50;1.27;;;21.80;99.90;;;;;;5052811;28;20500;-73
2024/04/06 10:28:09;;;;;;;1.53;1.43;;;21.70;99.90;;;;;;5052124;28;20553;-73
2024/04/06 10:30:39;;;;;;;2.20;1.17;;;21.70;99.90;;;;;;5033255;28;20834;-73
2024/04/06 10:33:06;;;;;;;1.20;1.10;;;21.70;99.90;;;;;;5054394;28;20458;-73
2024/04/06 10:35:32;;;;;;;1.87;1.63;;;21.80;99.90;;;;;;5053462;28;20471;-73
2024/04/06 10:37:58;;;;;;;1.90;1.10;;;21.90;99.90;;;;;;5062573;28;20560;-73
2024/04/06 10:40:28;;;;;;;1.43;1.33;;;21.90;99.90;;;;;;5057298;28;20439;-73
2024/04/06 10:42:54;;;;;;;1.40;1.30;;;22.00;99.90;;;;;;5059715;28;20215;-73
2024/04/06 10:45:20;;;;;;;3.73;1.50;;;22.20;99.90;;;;;;5056848;28;20525;-71
2024/04/06 10:47:46;;;;;;;1.40;1.30;;;22.30;99.90;;;;;;5061454;28;20500;-73
2024/04/06 10:50:12;;;;;;;1.33;1.07;;;22.40;99.90;;;;;;5054088;28;20493;-73
2024/04/06 10:52:44;;;;;;;2.60;1.10;;;22.70;99.90;;;;;;5061145;28;20225;-72
2024/04/06 10:55:10;;;;;;;2.03;1.20;;;22.80;99.90;;;;;;5060859;28;20236;-73
2024/04/06 10:57:37;;;;;;;1.00;1.00;;;22.70;99.90;;;;;;5055093;28;21500;-73
2024/04/06 11:00:08;;;;;;;1.33;1.23;;;22.90;99.90;;;;;;5061423;28;20460;-72
2024/04/06 11:02:34;;;;;;;4.40;1.30;;;22.80;99.90;;;;;;5054381;28;20457;-72
2024/04/06 11:05:01;;;;;;;1.67;1.33;;;23.00;99.90;;;;;;5037010;28;20472;-72
2024/04/06 11:07:26;;;;;;;1.40;1.30;;;23.30;99.90;;;;;;5049579;28;20226;-71
2024/04/06 11:09:53;;;;;;;1.67;1.57;;;23.40;99.90;;;;;;5054286;28;20763;-73
2024/04/06 11:12:18;;;;;;;1.77;1.67;;;23.70;99.90;;;;;;5050801;28;20222;-73
2024/04/06 11:14:51;;;;;;;1.53;1.43;;;23.70;99.90;;;;;;5039556;28;21018;-72
2024/04/06 11:17:18;;;;;;;3.40;1.50;;;23.60;99.90;;;;;;5050975;28;20313;-74
2024/04/06 11:19:44;;;;;;;1.83;1.63;;;23.60;99.90;;;;;;5036221;28;20464;-73
2024/04/06 11:22:10;;;;;;;2.93;2.03;;;23.80;99.90;;;;;;5039264;28;20469;-74
2024/04/06 11:24:36;;;;;;;2.30;2.10;;;23.90;99.90;;;;;;5037638;28;20226;-74
2024/04/06 11:27:07;;;;;;;1.80;1.70;;;24.00;99.90;;;;;;5058936;28;20517;-74
2024/04/06 11:29:33;;;;;;;2.03;1.93;;;24.00;99.90;;;;;;5049011;28;20319;-74
2024/04/06 11:31:59;;;;;;;2.00;1.90;;;24.40;99.90;;;;;;5051993;28;20912;-73
2024/04/06 11:34:25;;;;;;;3.80;2.03;;;24.50;99.90;;;;;;5051459;28;20720;-74
2024/04/06 11:36:50;;;;;;;2.40;2.20;;;24.50;99.90;;;;;;5055008;28;20279;-73
2024/04/06 11:39:16;;;;;;;2.67;2.47;;;24.60;99.90;;;;;;5050631;28;20234;-74
2024/04/06 11:41:42;;;;;;;2.10;2.00;;;24.70;99.90;;;;;;5053617;28;20229;-74
2024/04/06 11:44:07;;;;;;;1.90;1.80;;;24.80;99.90;;;;;;5037811;28;20715;-74
2024/04/06 11:46:34;;;;;;;1.80;1.70;;;25.20;99.90;;;;;;5051558;28;20218;-74
2024/04/06 11:49:03;;;;;;;2.40;1.50;;;25.20;99.90;;;;;;5056061;28;20260;-73
2024/04/06 11:51:29;;;;;;;3.17;1.60;;;25.20;99.90;;;;;;5050719;28;20449;-74
2024/04/06 11:53:54;;;;;;;3.20;1.77;;;25.40;99.90;;;;;;5042282;28;20490;-74
2024/04/06 11:56:20;;;;;;;1.80;1.70;;;25.50;99.90;;;;;;5054806;28;20214;-74
2024/04/06 11:58:47;;;;;;;2.20;1.90;;;25.90;99.90;;;;;;5061458;28;20214;-74
2024/04/06 12:01:13;;;;;;;1.23;1.23;;;25.70;99.90;;;;;;5059685;28;20684;-74
2024/04/06 12:03:39;;;;;;;4.00;1.83;;;25.80;99.90;;;;;;5060272;28;20509;-74
2024/04/06 12:06:06;;;;;;;1.53;1.43;;;25.60;99.90;;;;;;5060120;28;20237;-74
2024/04/06 12:08:32;;;;;;;1.60;1.50;;;25.90;99.90;;;;;;5044349;28;20309;-74
2024/04/06 12:10:57;;;;;;;1.57;1.47;;;26.20;99.90;;;;;;5059887;28;20544;-73
2024/04/06 12:13:23;;;;;;;2.70;1.63;;;26.20;99.90;;;;;;5058744;28;20236;-74
2024/04/06 12:15:49;;;;;;;2.70;1.80;;;26.10;99.90;;;;;;5044564;28;20283;-74
2024/04/06 12:18:14;;;;;;;6.23;1.50;;;26.50;99.90;;;;;;5058868;28;20229;-74
2024/04/06 12:20:40;;;;;;;1.80;1.70;;;26.80;99.90;;;;;;5058233;28;20329;-74
2024/04/06 12:23:06;;;;;;;1.60;1.50;;;26.80;99.90;;;;;;5060631;28;20223;-73
2024/04/06 12:25:32;;;;;;;1.60;1.50;;;26.80;99.90;;;;;;5039329;28;20254;-74
2024/04/06 12:27:58;;;;;;;1.10;1.10;;;26.70;99.90;;;;;;5063314;28;20834;-73
2024/04/06 12:30:23;;;;;;;2.13;1.90;;;26.50;99.90;;;;;;5064362;28;20518;-75
2024/04/06 12:32:49;;;;;;;1.73;1.57;;;26.60;99.90;;;;;;5079860;28;20272;-73
2024/04/06 12:35:15;;;;;;;1.53;1.43;;;26.50;99.90;;;;;;5061132;28;20215;-74
2024/04/06 12:37:43;;;;;;;2.00;1.87;;;26.50;99.90;;;;;;5060107;28;20736;-74
2024/04/06 12:40:09;;;;;;;1.60;1.50;;;26.80;99.90;;;;;;5058236;28;20348;-74
2024/04/06 12:42:35;;;;;;;2.00;1.47;;;27.00;99.40;;;;;;5054115;28;20471;-74
2024/04/06 12:45:01;;;;;;;1.23;1.23;;;26.90;99.90;;;;;;5042350;28;20447;-73